Time;durP1;ratioP1;P1;durP2;ratioP2;P2;SDS_P1;SDS_P2;PMS_P1;PMS_P2;Temp;Humidity;BMP_temperature;BMP_pressure;BME280_temperature;BME280_humidity;BME280_pressure;Samples;Min_cycle;Max_cycle;Signal;HPM_P1;HPM_P2
2024/01/03 00:02:23;;;;;;;8.60;4.00;;;;;;;5.04;71.27;95386.09;107693;1238;97964;-78
2024/01/03 00:04:50;;;;;;;5.10;2.50;;;;;;;5.05;71.14;95374.48;107795;1235;97886;-77
2024/01/03 00:07:16;;;;;;;4.60;2.50;;;;;;;5.06;71.23;95374.30;107767;1238;97962;-78
2024/01/03 00:09:43;;;;;;;4.10;1.80;;;;;;;5.06;71.16;95372.74;107436;1241;103453;-78
2024/01/03 00:12:22;;;;;;;3.90;1.70;;;;;;;5.07;71.17;95368.96;107794;1247;98792;-78
2024/01/03 00:14:49;;;;;;;1.90;1.40;;;;;;;5.08;71.22;95371.74;107818;1241;99965;-77
2024/01/03 00:17:15;;;;;;;1.30;1.10;;;;;;;5.07;71.08;95366.34;107769;1235;97879;-82
2024/01/03 00:19:42;;;;;;;1.10;0.90;;;;;;;5.05;70.95;95363.66;107799;1249;97821;-83
2024/01/03 00:22:13;;;;;;;1.90;1.20;;;;;;;5.07;70.95;95362.42;107839;1241;97812;-83
2024/01/03 00:24:48;;;;;;;2.00;0.90;;;;;;;5.07;71.05;95361.90;107739;1248;101253;-82
2024/01/03 00:27:16;;;;;;;2.40;1.10;;;;;;;5.08;71.23;95364.02;107813;1247;98873;-83
2024/01/03 00:29:52;;;;;;;1.90;1.30;;;;;;;5.09;71.18;95359.10;107766;1249;99059;-83
2024/01/03 00:32:19;;;;;;;4.00;1.10;;;;;;;5.10;71.10;95357.98;107814;1238;98385;-83
2024/01/03 00:34:46;;;;;;;1.30;1.10;;;;;;;5.11;71.09;95359.95;107788;1239;102118;-83
2024/01/03 00:37:24;;;;;;;1.00;0.80;;;;;;;5.11;71.13;95356.36;107829;1235;99256;-83
2024/01/03 00:39:50;;;;;;;1.70;1.10;;;;;;;5.11;71.08;95355.09;107823;1249;99719;-83
2024/01/03 00:42:16;;;;;;;1.20;1.00;;;;;;;5.13;71.11;95355.27;107831;1240;98798;-83
2024/01/03 00:44:45;;;;;;;1.50;0.80;;;;;;;5.12;71.19;95351.20;107694;1248;98795;-83
2024/01/03 00:47:13;;;;;;;1.80;1.10;;;;;;;5.13;71.22;95348.61;107583;1247;97866;-83
2024/01/03 00:49:40;;;;;;;2.40;1.20;;;;;;;5.11;71.24;95347.06;107511;1244;97875;-83
2024/01/03 00:52:07;;;;;;;1.50;1.30;;;;;;;5.08;71.29;95348.23;107773;1247;98376;-83
2024/01/03 00:54:35;;;;;;;2.30;1.70;;;;;;;5.09;71.33;95349.15;107789;1241;98982;-84
2024/01/03 00:57:04;;;;;;;3.30;1.60;;;;;;;5.07;71.35;95347.41;107818;1247;98320;-83
2024/01/03 00:59:34;;;;;;;2.40;1.60;;;;;;;5.07;71.39;95348.69;107846;1240;103513;-84
2024/01/03 01:02:03;;;;;;;1.80;1.20;;;;;;;5.07;71.38;95353.33;107725;1238;101058;-78
2024/01/03 01:04:31;;;;;;;1.70;1.40;;;;;;;5.06;71.42;95354.39;107792;1241;98858;-79
2024/01/03 01:06:58;;;;;;;2.00;1.40;;;;;;;5.07;71.45;95358.42;107773;1247;98554;-78
2024/01/03 01:09:24;;;;;;;2.90;1.80;;;;;;;5.06;71.45;95352.41;107836;1238;97896;-79
2024/01/03 01:11:51;;;;;;;2.00;1.50;;;;;;;5.04;71.53;95350.59;107804;1235;97866;-79
2024/01/03 01:14:17;;;;;;;2.20;1.40;;;;;;;5.04;71.64;95341.00;107822;1248;97906;-78
2024/01/03 01:16:43;;;;;;;3.10;1.90;;;;;;;5.04;71.79;95340.42;107885;1249;97919;-78
2024/01/03 01:19:09;;;;;;;2.40;1.50;;;;;;;5.02;71.80;95336.84;107796;1246;98397;-79
2024/01/03 01:21:40;;;;;;;1.90;1.50;;;;;;;5.00;71.90;95334.23;107778;1239;98369;-81
2024/01/03 01:24:06;;;;;;;3.40;2.30;;;;;;;5.00;71.95;95325.95;107529;1238;101184;-78
2024/01/03 01:26:32;;;;;;;3.00;2.10;;;;;;;5.01;72.16;95329.73;107791;1240;97961;-78
2024/01/03 01:28:59;;;;;;;2.80;2.00;;;;;;;4.98;72.26;95322.33;107820;1241;98025;-78
2024/01/03 01:31:25;;;;;;;3.40;2.10;;;;;;;5.00;72.31;95319.54;107843;1238;97887;-78
2024/01/03 01:33:51;;;;;;;3.60;2.00;;;;;;;5.00;72.64;95318.75;107798;1238;100391;-78
2024/01/03 01:36:18;;;;;;;2.70;1.90;;;;;;;4.99;72.72;95320.33;107786;1249;98795;-79
2024/01/03 01:38:44;;;;;;;3.60;1.90;;;;;;;4.94;73.30;95311.53;107649;1249;99099;-78
2024/01/03 01:41:10;;;;;;;3.40;1.80;;;;;;;4.91;73.54;95310.24;107907;1237;97951;-83
2024/01/03 01:43:36;;;;;;;3.50;1.80;;;;;;;4.91;73.44;95305.52;107779;1238;101305;-84
2024/01/03 01:46:03;;;;;;;2.50;1.30;;;;;;;4.92;73.75;95300.73;107770;1249;97915;-79
2024/01/03 01:48:30;;;;;;;2.30;1.40;;;;;;;4.89;73.69;95289.59;107768;1247;97889;-79
2024/01/03 01:50:57;;;;;;;2.00;1.40;;;;;;;4.90;74.18;95283.78;107805;1238;97946;-78
2024/01/03 01:53:24;;;;;;;1.10;0.90;;;;;;;4.88;74.16;95274.42;107883;1243;97911;-79
2024/01/03 01:55:51;;;;;;;1.50;1.10;;;;;;;4.85;74.58;95272.15;107771;1240;99686;-78
2024/01/03 01:58:19;;;;;;;1.40;0.80;;;;;;;4.82;74.50;95268.61;107794;1249;97897;-78
2024/01/03 02:00:45;;;;;;;1.90;1.00;;;;;;;4.81;74.59;95261.73;107810;1239;97874;-78
2024/01/03 02:03:12;;;;;;;1.10;0.90;;;;;;;4.81;74.51;95261.20;107827;1247;97963;-78
2024/01/03 02:05:40;;;;;;;1.60;1.00;;;;;;;4.81;74.49;95257.27;107829;1237;97974;-78
2024/01/03 02:08:10;;;;;;;1.00;0.90;;;;;;;4.80;74.74;95255.09;107763;1238;97869;-77
2024/01/03 02:10:37;;;;;;;0.60;0.60;;;;;;;4.82;74.61;95256.42;107890;1238;97911;-77
2024/01/03 02:13:03;;;;;;;0.80;0.60;;;;;;;4.85;74.55;95253.00;107586;1238;98817;-77
2024/01/03 02:15:29;;;;;;;0.80;0.60;;;;;;;4.86;74.51;95245.98;107551;1246;99170;-78
2024/01/03 02:17:57;;;;;;;0.50;0.50;;;;;;;4.89;74.46;95241.19;107792;1249;98405;-78
2024/01/03 02:20:25;;;;;;;0.50;0.40;;;;;;;4.90;74.53;95241.13;107694;1241;97957;-77
2024/01/03 02:22:51;;;;;;;0.70;0.40;;;;;;;4.91;74.55;95235.39;107861;1237;98296;-78
2024/01/03 02:25:18;;;;;;;0.30;0.20;;;;;;;4.92;74.64;95231.51;107800;1239;98291;-77
2024/01/03 02:27:44;;;;;;;0.20;0.20;;;;;;;4.93;74.89;95225.38;107828;1248;97914;-78
2024/01/03 02:30:11;;;;;;;0.40;0.40;;;;;;;4.92;75.17;95222.67;107847;1238;99145;-77
2024/01/03 02:32:38;;;;;;;0.70;0.30;;;;;;;4.92;75.12;95220.95;107725;1238;98398;-77
2024/01/03 02:35:05;;;;;;;0.30;0.30;;;;;;;4.91;75.40;95221.37;107826;1244;97898;-77
2024/01/03 02:37:32;;;;;;;1.40;0.30;;;;;;;4.89;75.68;95225.59;107654;1242;97914;-77
2024/01/03 02:39:59;;;;;;;0.60;0.30;;;;;;;4.91;75.47;95225.52;107500;1242;98036;-84
2024/01/03 02:42:25;;;;;;;0.40;0.20;;;;;;;4.92;75.60;95222.14;107923;1235;99125;-84
2024/01/03 02:44:51;;;;;;;0.70;0.30;;;;;;;4.91;75.87;95221.09;107830;1238;103377;-83
2024/01/03 02:47:17;;;;;;;0.30;0.30;;;;;;;4.92;75.70;95222.35;107855;1239;97891;-84
2024/01/03 02:49:44;;;;;;;0.50;0.30;;;;;;;4.91;75.97;95212.11;107779;1247;97902;-84
2024/01/03 02:52:10;;;;;;;0.40;0.30;;;;;;;4.93;75.86;95211.52;107872;1235;97981;-84
2024/01/03 02:54:36;;;;;;;0.40;0.30;;;;;;;4.94;75.65;95212.89;107841;1249;103561;-84
2024/01/03 02:57:03;;;;;;;0.50;0.20;;;;;;;4.96;75.69;95212.06;107834;1238;97891;-84
2024/01/03 02:59:29;;;;;;;0.20;0.20;;;;;;;4.96;75.79;95213.30;107743;1238;97934;-83
2024/01/03 03:01:57;;;;;;;0.10;0.10;;;;;;;4.96;76.00;95213.67;107738;1235;98926;-78
2024/01/03 03:04:23;;;;;;;0.10;0.10;;;;;;;4.95;76.28;95213.23;107824;1246;103292;-77
2024/01/03 03:06:50;;;;;;;0.50;0.40;;;;;;;4.94;76.63;95212.27;107789;1238;99159;-78
2024/01/03 03:09:16;;;;;;;0.10;0.10;;;;;;;4.91;76.55;95211.01;107798;1249;97974;-77
2024/01/03 03:11:43;;;;;;;1.70;0.40;;;;;;;4.91;76.44;95212.23;107739;1235;98915;-78
2024/01/03 03:14:10;;;;;;;0.30;0.20;;;;;;;4.90;76.73;95206.86;107803;1241;103589;-78
2024/01/03 03:16:36;;;;;;;0.50;0.30;;;;;;;4.88;76.98;95201.39;107939;1241;97882;-81
2024/01/03 03:19:03;;;;;;;0.40;0.40;;;;;;;4.87;76.78;95201.96;107786;1240;98261;-79
2024/01/03 03:21:30;;;;;;;0.50;0.20;;;;;;;4.85;77.32;95198.16;107814;1240;98014;-78
2024/01/03 03:23:56;;;;;;;0.30;0.20;;;;;;;4.84;77.42;95194.48;107891;1246;98277;-78
2024/01/03 03:26:22;;;;;;;0.40;0.30;;;;;;;4.84;77.07;95188.14;107779;1238;101171;-78
2024/01/03 03:28:48;;;;;;;0.30;0.30;;;;;;;4.86;76.91;95187.80;107782;1247;97959;-78
2024/01/03 03:31:15;;;;;;;0.70;0.30;;;;;;;4.84;76.74;95185.69;107779;1235;97975;-79
2024/01/03 03:33:41;;;;;;;1.00;0.30;;;;;;;4.87;76.91;95188.06;107905;1239;97902;-78
2024/01/03 03:36:14;;;;;;;1.20;0.30;;;;;;;4.88;77.11;95182.75;107821;1246;99891;-79
2024/01/03 03:38:41;;;;;;;0.20;0.20;;;;;;;4.85;77.99;95180.20;107713;1249;99811;-82
2024/01/03 03:41:11;;;;;;;0.40;0.30;;;;;;;4.83;77.65;95181.60;107836;1238;97928;-81
2024/01/03 03:43:39;;;;;;;1.20;0.50;;;;;;;4.83;77.51;95178.02;107811;1238;98433;-82
2024/01/03 03:46:10;;;;;;;1.40;0.70;;;;;;;4.83;77.50;95180.33;107762;1243;102450;-81
2024/01/03 03:48:36;;;;;;;1.10;0.60;;;;;;;4.83;77.81;95182.88;107842;1238;101203;-82
2024/01/03 03:51:04;;;;;;;1.50;0.90;;;;;;;4.82;77.74;95181.05;107786;1239;98808;-82
2024/01/03 03:53:30;;;;;;;1.00;0.70;;;;;;;4.81;77.65;95180.06;107793;1248;97942;-82
2024/01/03 03:55:56;;;;;;;0.80;0.50;;;;;;;4.84;77.74;95183.00;107871;1249;97941;-79
2024/01/03 03:58:22;;;;;;;0.90;0.50;;;;;;;4.85;77.60;95182.27;107842;1238;101398;-78
2024/01/03 04:00:49;;;;;;;0.90;0.40;;;;;;;4.86;77.61;95181.13;107790;1239;97884;-79
2024/01/03 04:03:15;;;;;;;0.50;0.40;;;;;;;4.88;77.55;95177.66;107794;1239;98022;-79
2024/01/03 04:05:42;;;;;;;0.40;0.40;;;;;;;4.90;77.53;95171.73;107850;1238;97888;-78
2024/01/03 04:08:09;;;;;;;0.90;0.40;;;;;;;4.91;77.51;95171.48;107796;1247;101136;-78
2024/01/03 04:10:35;;;;;;;0.90;0.40;;;;;;;4.92;77.57;95176.60;107785;1249;97966;-79
2024/01/03 04:13:02;;;;;;;0.70;0.40;;;;;;;4.94;77.67;95175.96;107799;1240;97898;-78
2024/01/03 04:15:28;;;;;;;0.60;0.60;;;;;;;4.96;77.58;95176.61;107875;1235;97924;-82
2024/01/03 04:17:54;;;;;;;0.60;0.60;;;;;;;4.97;77.54;95174.66;107740;1244;101031;-82
2024/01/03 04:20:21;;;;;;;0.60;0.60;;;;;;;4.98;77.56;95175.70;107778;1244;97984;-82
2024/01/03 04:22:47;;;;;;;1.30;0.40;;;;;;;4.98;77.60;95176.05;107777;1245;98783;-82
2024/01/03 04:25:13;;;;;;;0.70;0.60;;;;;;;5.00;77.62;95179.30;107870;1239;99157;-82
2024/01/03 04:27:40;;;;;;;0.40;0.40;;;;;;;5.00;77.69;95181.44;107826;1238;101792;-82
2024/01/03 04:30:06;;;;;;;0.40;0.40;;;;;;;5.00;77.93;95179.67;107832;1249;97902;-82
2024/01/03 04:32:33;;;;;;;0.50;0.40;;;;;;;4.98;78.38;95179.72;107842;1237;98007;-81
2024/01/03 04:34:59;;;;;;;0.90;0.70;;;;;;;4.98;78.26;95180.41;107764;1234;98340;-81
2024/01/03 04:37:26;;;;;;;1.00;0.30;;;;;;;4.98;78.26;95188.34;107744;1237;99899;-81
2024/01/03 04:39:53;;;;;;;1.20;0.60;;;;;;;4.98;78.54;95184.92;107650;1235;98673;-82
2024/01/03 04:42:19;;;;;;;1.30;0.50;;;;;;;4.97;79.03;95188.02;107797;1238;99122;-82
2024/01/03 04:44:46;;;;;;;0.80;0.40;;;;;;;4.97;79.04;95185.23;107815;1235;97986;-82
2024/01/03 04:47:12;;;;;;;0.80;0.70;;;;;;;4.97;79.44;95186.54;107896;1248;99147;-81
2024/01/03 04:49:38;;;;;;;0.80;0.50;;;;;;;4.97;79.38;95186.91;107811;1238;100009;-81
2024/01/03 04:52:05;;;;;;;0.50;0.40;;;;;;;4.97;79.94;95183.80;107801;1247;99049;-81
2024/01/03 04:54:31;;;;;;;0.90;0.40;;;;;;;4.95;79.92;95189.00;107828;1248;98346;-79
2024/01/03 04:56:58;;;;;;;0.60;0.30;;;;;;;4.97;79.93;95189.30;107857;1235;99138;-79
2024/01/03 04:59:24;;;;;;;1.60;0.40;;;;;;;4.97;80.18;95190.16;107791;1235;99502;-79
2024/01/03 05:01:50;;;;;;;1.10;0.40;;;;;;;4.97;80.75;95192.89;107682;1239;98689;-79
2024/01/03 05:04:17;;;;;;;0.40;0.40;;;;;;;4.97;80.76;95197.61;107871;1247;97968;-78
2024/01/03 05:06:43;;;;;;;1.60;0.40;;;;;;;5.01;80.78;95202.63;107917;1239;97930;-79
2024/01/03 05:09:10;;;;;;;0.90;0.50;;;;;;;5.01;81.49;95200.98;107708;1247;100063;-79
2024/01/03 05:11:36;;;;;;;0.20;0.20;;;;;;;5.01;81.36;95203.85;107688;1238;98792;-79
2024/01/03 05:14:02;;;;;;;1.30;0.40;;;;;;;5.01;81.27;95196.73;107773;1246;99144;-79
2024/01/03 05:16:28;;;;;;;1.80;0.40;;;;;;;5.02;81.28;95201.65;107875;1239;97973;-79
2024/01/03 05:18:55;;;;;;;0.40;0.30;;;;;;;5.04;81.36;95200.40;107777;1239;99834;-80
2024/01/03 05:21:21;;;;;;;1.50;0.50;;;;;;;5.03;81.38;95202.16;107801;1247;97813;-80
2024/01/03 05:23:47;;;;;;;0.20;0.20;;;;;;;5.02;81.57;95195.27;107792;1238;97921;-80
2024/01/03 05:26:14;;;;;;;0.70;0.50;;;;;;;5.04;81.55;95191.54;107891;1239;98322;-79
2024/01/03 05:28:40;;;;;;;0.60;0.50;;;;;;;5.05;81.96;95197.41;107804;1239;99879;-79
2024/01/03 05:31:06;;;;;;;0.50;0.50;;;;;;;5.05;81.77;95195.20;107812;1238;97950;-85
2024/01/03 05:33:33;;;;;;;0.70;0.60;;;;;;;5.05;82.33;95197.02;107771;1239;97910;-84
2024/01/03 05:35:59;;;;;;;0.60;0.60;;;;;;;5.05;82.89;95203.80;107894;1238;97969;-84
2024/01/03 05:38:25;;;;;;;0.70;0.50;;;;;;;5.06;82.36;95202.45;107787;1238;100034;-84
2024/01/03 05:40:51;;;;;;;0.80;0.60;;;;;;;5.08;82.37;95205.41;107724;1237;97885;-84
2024/01/03 05:43:18;;;;;;;0.70;0.60;;;;;;;5.09;82.65;95208.65;107815;1237;97975;-85
2024/01/03 05:45:44;;;;;;;3.80;0.80;;;;;;;5.11;82.70;95207.10;107869;1238;98030;-85
2024/01/03 05:48:10;;;;;;;1.00;0.70;;;;;;;5.11;82.73;95212.48;107774;1241;100259;-85
2024/01/03 05:50:36;;;;;;;1.50;0.90;;;;;;;5.13;82.47;95213.13;107837;1239;97911;-79
2024/01/03 05:53:03;;;;;;;1.50;0.90;;;;;;;5.12;83.19;95212.31;107735;1239;97903;-79
2024/01/03 05:55:29;;;;;;;1.30;0.90;;;;;;;5.10;83.75;95215.42;107854;1239;99030;-79
2024/01/03 05:57:55;;;;;;;1.00;0.90;;;;;;;5.07;84.32;95215.99;107798;1240;99761;-79
2024/01/03 06:00:22;;;;;;;1.30;0.80;;;;;;;5.05;85.27;95218.20;107774;1238;97978;-79
2024/01/03 06:02:48;;;;;;;1.30;0.90;;;;;;;5.03;84.36;95220.11;107748;1245;98673;-79
2024/01/03 06:05:16;;;;;;;1.10;0.60;;;;;;;5.05;84.69;95219.85;107888;1247;97900;-78
2024/01/03 06:07:44;;;;;;;1.30;1.10;;;;;;;5.04;85.46;95222.35;107813;1239;99814;-79
2024/01/03 06:10:10;;;;;;;2.50;1.00;;;;;;;5.03;86.32;95218.80;107753;1237;99093;-79
2024/01/03 06:12:38;;;;;;;1.30;0.70;;;;;;;5.02;86.83;95219.66;107570;1248;98839;-79
2024/01/03 06:15:07;;;;;;;1.90;0.80;;;;;;;5.02;86.30;95225.05;107831;1239;97891;-80
2024/01/03 06:17:33;;;;;;;2.50;1.20;;;;;;;5.02;87.75;95227.31;107843;1246;101256;-86
2024/01/03 06:19:59;;;;;;;2.20;1.20;;;;;;;5.04;87.48;95231.05;107759;1246;99180;-85
2024/01/03 06:22:26;;;;;;;1.50;1.20;;;;;;;5.05;86.95;95239.17;107798;1245;99128;-87
2024/01/03 06:24:52;;;;;;;2.40;1.30;;;;;;;5.08;86.71;95240.06;107873;1248;97893;-86
2024/01/03 06:27:18;;;;;;;2.10;1.30;;;;;;;5.10;86.34;95245.63;107822;1244;101186;-86
2024/01/03 06:29:45;;;;;;;2.30;1.50;;;;;;;5.12;86.20;95254.77;107553;1239;98788;-87
2024/01/03 06:32:11;;;;;;;2.10;1.40;;;;;;;5.13;86.86;95259.94;107654;1239;98044;-80
2024/01/03 06:34:37;;;;;;;1.50;1.10;;;;;;;5.14;88.00;95257.91;107839;1239;97972;-79
2024/01/03 06:37:04;;;;;;;3.20;1.40;;;;;;;5.14;87.88;95257.45;107795;1238;101315;-79
2024/01/03 06:39:30;;;;;;;3.10;1.60;;;;;;;5.15;87.91;95259.66;107787;1238;99131;-79
2024/01/03 06:41:56;;;;;;;1.40;1.30;;;;;;;5.16;87.72;95260.89;107800;1246;97896;-79
2024/01/03 06:44:23;;;;;;;4.80;1.50;;;;;;;5.19;87.07;95256.76;107891;1238;97890;-80
2024/01/03 06:46:49;;;;;;;1.70;1.30;;;;;;;5.22;87.26;95258.60;107820;1237;101388;-86
2024/01/03 06:49:15;;;;;;;1.60;1.00;;;;;;;5.22;87.60;95268.35;107794;1241;98807;-78
2024/01/03 06:51:43;;;;;;;2.00;1.20;;;;;;;5.22;87.98;95264.73;107798;1237;99122;-78
2024/01/03 06:54:09;;;;;;;3.70;1.40;;;;;;;5.22;87.98;95259.73;107757;1238;99233;-78
2024/01/03 06:56:35;;;;;;;2.60;1.10;;;;;;;5.23;88.01;95267.93;107823;1235;99132;-78
2024/01/03 06:59:02;;;;;;;1.90;1.30;;;;;;;5.24;87.83;95274.00;107794;1242;98921;-78
2024/01/03 07:01:28;;;;;;;3.20;1.60;;;;;;;5.26;87.74;95279.56;107825;1239;97888;-78
2024/01/03 07:03:54;;;;;;;2.80;1.80;;;;;;;5.26;87.99;95273.11;107804;1240;99137;-78
2024/01/03 07:06:21;;;;;;;3.20;2.10;;;;;;;5.28;88.15;95278.40;107792;1238;99121;-78
2024/01/03 07:08:49;;;;;;;3.60;1.90;;;;;;;5.28;88.15;95285.19;107698;1246;98921;-78
2024/01/03 07:11:15;;;;;;;3.00;1.90;;;;;;;5.28;87.72;95283.66;107608;1238;98045;-79
2024/01/03 07:13:41;;;;;;;2.30;1.60;;;;;;;5.30;87.48;95285.84;107772;1235;97976;-79
2024/01/03 07:16:07;;;;;;;3.40;2.00;;;;;;;5.31;87.57;95290.67;107802;1249;97899;-79
2024/01/03 07:18:34;;;;;;;3.40;1.90;;;;;;;5.33;87.38;95292.91;107813;1238;98788;-79
2024/01/03 07:21:00;;;;;;;3.30;2.30;;;;;;;5.35;87.18;95293.29;107792;1238;97956;-79
2024/01/03 07:23:27;;;;;;;3.40;2.20;;;;;;;5.38;87.02;95300.79;107815;1239;97899;-79
2024/01/03 07:25:53;;;;;;;2.60;2.00;;;;;;;5.39;87.10;95293.33;107818;1238;97899;-79
2024/01/03 07:28:20;;;;;;;8.50;4.80;;;;;;;5.41;86.86;95297.20;107638;1241;97975;-88
2024/01/03 07:30:46;;;;;;;5.10;3.10;;;;;;;5.43;86.96;95287.76;107564;1238;99144;-79
2024/01/03 07:33:13;;;;;;;4.00;2.80;;;;;;;5.43;87.77;95283.37;107822;1248;98088;-78
2024/01/03 07:35:39;;;;;;;4.60;3.00;;;;;;;5.40;88.18;95282.67;107779;1239;98241;-78
2024/01/03 07:38:07;;;;;;;9.10;5.20;;;;;;;5.40;87.92;95281.66;107819;1239;99146;-78
2024/01/03 07:40:34;;;;;;;6.20;4.00;;;;;;;5.41;88.02;95280.66;107820;1238;97903;-78
2024/01/03 07:43:01;;;;;;;8.90;4.50;;;;;;;5.40;88.44;95283.42;107869;1235;98004;-77
2024/01/03 07:45:27;;;;;;;7.90;5.20;;;;;;;5.40;88.19;95280.99;107800;1248;97908;-77
2024/01/03 07:47:54;;;;;;;6.50;4.40;;;;;;;5.41;88.32;95280.66;107727;1240;98010;-85
2024/01/03 07:50:21;;;;;;;7.50;4.30;;;;;;;5.43;88.09;95283.58;107761;1239;97902;-86
2024/01/03 07:52:47;;;;;;;8.90;4.70;;;;;;;5.45;88.49;95283.61;107820;1235;98410;-87
2024/01/03 07:55:13;;;;;;;5.50;3.40;;;;;;;5.47;88.39;95285.98;107771;1234;99130;-87
2024/01/03 07:57:40;;;;;;;5.50;3.50;;;;;;;5.51;88.07;95277.14;107825;1248;97981;-87
2024/01/03 08:00:07;;;;;;;5.60;3.50;;;;;;;5.58;88.10;95278.64;107802;1245;97935;-87
2024/01/03 08:02:34;;;;;;;6.80;4.30;;;;;;;5.63;88.12;95279.55;107826;1249;98411;-86
2024/01/03 08:05:00;;;;;;;6.00;3.40;;;;;;;5.67;87.91;95281.58;107803;1241;99149;-88
2024/01/03 08:07:27;;;;;;;8.60;4.50;;;;;;;5.70;87.95;95282.95;107790;1237;97799;-79
2024/01/03 08:09:53;;;;;;;5.10;3.40;;;;;;;5.73;88.52;95282.16;107784;1237;97906;-78
2024/01/03 08:12:20;;;;;;;9.40;5.20;;;;;;;5.74;88.99;95283.89;107832;1236;97908;-78
2024/01/03 08:14:46;;;;;;;9.80;5.50;;;;;;;5.75;89.40;95290.88;107783;1245;103197;-78
2024/01/03 08:17:12;;;;;;;5.60;4.10;;;;;;;5.78;88.81;95293.63;107832;1235;98024;-78
2024/01/03 08:19:40;;;;;;;5.50;3.60;;;;;;;5.82;88.97;95289.95;107787;1239;97897;-78
2024/01/03 08:22:07;;;;;;;6.60;3.90;;;;;;;5.87;88.85;95297.05;107820;1239;97916;-79
2024/01/03 08:24:33;;;;;;;4.40;2.80;;;;;;;5.91;89.09;95302.36;107814;1249;97997;-79
2024/01/03 08:27:00;;;;;;;6.40;3.40;;;;;;;5.93;89.16;95308.12;107790;1248;101823;-79
2024/01/03 08:29:26;;;;;;;4.80;3.10;;;;;;;5.96;90.07;95305.56;107769;1248;98799;-79
2024/01/03 08:31:55;;;;;;;5.70;2.60;;;;;;;5.98;90.12;95309.84;107763;1247;98653;-79
2024/01/03 08:34:21;;;;;;;4.50;2.90;;;;;;;6.01;89.86;95304.89;107741;1245;97893;-79
2024/01/03 08:36:48;;;;;;;6.70;2.70;;;;;;;6.06;89.68;95305.27;107798;1237;98914;-79
2024/01/03 08:39:14;;;;;;;5.90;3.00;;;;;;;6.09;89.94;95304.04;107860;1235;99026;-77
2024/01/03 08:41:41;;;;;;;5.60;3.30;;;;;;;6.12;89.86;95305.36;107764;1238;97879;-79
2024/01/03 08:44:07;;;;;;;7.60;3.30;;;;;;;6.13;90.28;95305.54;107830;1248;97893;-88
2024/01/03 08:46:40;;;;;;;5.30;3.50;;;;;;;6.16;90.18;95298.77;107769;1239;98812;-82
2024/01/03 08:49:08;;;;;;;4.40;3.00;;;;;;;6.19;90.16;95310.90;107804;1239;101351;-82
2024/01/03 08:51:34;;;;;;;7.60;4.80;;;;;;;6.21;90.17;95308.96;107761;1239;99173;-81
2024/01/03 08:54:00;;;;;;;7.40;4.70;;;;;;;6.24;90.63;95313.59;107745;1239;99090;-81
2024/01/03 08:56:27;;;;;;;8.20;5.20;;;;;;;6.26;90.73;95311.70;107894;1235;99123;-81
2024/01/03 08:58:53;;;;;;;6.70;4.60;;;;;;;6.28;91.07;95311.69;107778;1243;100311;-81
2024/01/03 09:01:24;;;;;;;6.70;4.10;;;;;;;6.31;90.62;95315.33;107780;1249;97915;-78
2024/01/03 09:03:51;;;;;;;5.00;3.10;;;;;;;6.33;90.38;95313.98;107726;1239;99121;-78
2024/01/03 09:06:20;;;;;;;5.60;3.90;;;;;;;6.38;90.09;95316.05;107732;1249;97937;-78
2024/01/03 09:08:50;;;;;;;4.60;2.90;;;;;;;6.41;90.31;95316.00;107843;1247;103425;-78
2024/01/03 09:11:19;;;;;;;5.70;2.80;;;;;;;6.45;90.36;95320.30;107786;1239;100179;-77
2024/01/03 09:13:49;;;;;;;3.70;2.20;;;;;;;6.50;90.19;95316.34;107727;1238;99848;-78
2024/01/03 09:16:20;;;;;;;4.20;2.60;;;;;;;6.58;90.04;95319.67;107678;1239;99158;-78
2024/01/03 09:18:47;;;;;;;3.70;2.40;;;;;;;6.66;89.79;95322.46;107832;1238;98007;-78
2024/01/03 09:21:14;;;;;;;5.40;2.90;;;;;;;6.72;89.62;95324.63;107718;1246;97889;-78
2024/01/03 09:23:40;;;;;;;8.20;4.50;;;;;;;6.79;89.73;95320.80;107715;1247;98242;-82
2024/01/03 09:26:09;;;;;;;8.40;4.60;;;;;;;6.86;89.64;95320.35;107791;1245;97991;-82
2024/01/03 09:28:35;;;;;;;5.00;3.30;;;;;;;6.88;89.29;95323.05;107761;1239;98835;-82
2024/01/03 09:31:02;;;;;;;4.10;2.60;;;;;;;6.90;88.99;95323.20;107741;1239;98022;-81
2024/01/03 09:33:28;;;;;;;5.90;2.80;;;;;;;6.92;88.87;95326.93;107868;1239;97927;-81
2024/01/03 09:35:55;;;;;;;5.50;3.50;;;;;;;6.94;88.79;95329.98;107734;1239;99172;-82
2024/01/03 09:38:21;;;;;;;6.90;3.40;;;;;;;6.96;88.67;95333.99;107787;1239;97886;-82
2024/01/03 09:40:49;;;;;;;6.90;4.00;;;;;;;6.97;88.60;95335.88;107795;1237;97912;-82
2024/01/03 09:43:16;;;;;;;6.30;3.60;;;;;;;7.02;88.46;95338.81;107800;1249;99150;-79
2024/01/03 09:45:43;;;;;;;5.50;2.70;;;;;;;7.07;88.34;95333.99;107475;1245;98817;-82
2024/01/03 09:48:09;;;;;;;6.70;4.00;;;;;;;7.14;88.13;95338.95;107782;1239;97976;-82
2024/01/03 09:50:35;;;;;;;3.90;2.70;;;;;;;7.21;87.98;95339.48;107758;1243;99597;-82
2024/01/03 09:53:03;;;;;;;3.20;2.60;;;;;;;7.26;88.21;95339.06;107781;1238;97880;-82
2024/01/03 09:55:30;;;;;;;5.50;2.10;;;;;;;7.28;87.77;95338.73;107737;1239;97882;-82
2024/01/03 09:57:57;;;;;;;4.30;2.60;;;;;;;7.32;87.48;95343.36;107788;1237;98406;-82
2024/01/03 10:00:29;;;;;;;4.00;2.80;;;;;;;7.34;87.41;95349.53;107655;1248;97911;-81
2024/01/03 10:03:07;;;;;;;7.30;3.50;;;;;;;7.36;87.36;95352.34;107682;1238;98395;-79
2024/01/03 10:05:34;;;;;;;5.80;3.90;;;;;;;7.39;87.26;95352.50;107611;1238;103530;-78
2024/01/03 10:08:14;;;;;;;4.90;3.00;;;;;;;7.42;87.23;95350.20;107766;1248;97982;-78
2024/01/03 10:10:40;;;;;;;4.70;3.50;;;;;;;7.46;87.03;95348.52;107750;1249;98849;-78
2024/01/03 10:13:23;;;;;;;6.20;3.50;;;;;;;7.50;87.02;95357.54;107771;1246;97929;-78
2024/01/03 10:15:50;;;;;;;8.00;3.50;;;;;;;7.50;86.93;95354.81;107750;1241;98315;-89
2024/01/03 10:18:18;;;;;;;5.50;3.30;;;;;;;7.53;86.51;95355.29;107677;1249;99159;-89
2024/01/03 10:20:45;;;;;;;7.00;3.30;;;;;;;7.56;86.41;95358.40;107682;1245;98683;-88
2024/01/03 10:23:13;;;;;;;6.60;4.00;;;;;;;7.57;86.28;95360.41;107792;1247;97899;-89
2024/01/03 10:25:42;;;;;;;7.20;3.60;;;;;;;7.63;86.31;95361.84;107765;1240;97909;-89
2024/01/03 10:28:11;;;;;;;6.50;3.90;;;;;;;7.67;85.97;95356.86;107772;1249;98424;-90
2024/01/03 10:30:37;;;;;;;6.90;4.20;;;;;;;7.71;85.87;95354.26;107803;1238;103226;-89
2024/01/03 10:33:08;;;;;;;7.50;4.70;;;;;;;7.76;85.83;95352.92;107715;1248;98433;-79
2024/01/03 10:35:41;;;;;;;8.00;4.70;;;;;;;7.79;85.77;95354.77;107665;1239;99043;-78
2024/01/03 10:38:08;;;;;;;6.80;3.80;;;;;;;7.78;85.57;95359.46;107784;1238;97927;-76
2024/01/03 10:40:36;;;;;;;7.50;3.70;;;;;;;7.76;85.24;95356.90;107838;1248;98412;-78
2024/01/03 10:43:04;;;;;;;7.00;3.30;;;;;;;7.73;85.22;95362.23;107811;1248;102493;-78
2024/01/03 10:45:31;;;;;;;5.60;3.10;;;;;;;7.70;84.98;95365.35;107801;1249;99010;-77
2024/01/03 10:47:58;;;;;;;8.50;3.40;;;;;;;7.70;84.95;95361.65;107786;1238;99164;-76
2024/01/03 10:50:24;;;;;;;7.30;3.60;;;;;;;7.69;84.98;95360.83;107742;1239;99135;-77
2024/01/03 10:52:56;;;;;;;7.00;3.80;;;;;;;7.68;85.10;95358.34;107798;1243;97875;-77
2024/01/03 10:55:29;;;;;;;6.80;4.40;;;;;;;7.66;84.94;95357.11;107910;1243;103599;-76
2024/01/03 10:58:02;;;;;;;7.80;4.70;;;;;;;7.66;85.00;95360.94;107760;1240;100259;-77
2024/01/03 11:00:54;;;;;;;8.90;4.80;;;;;;;7.64;84.99;95358.05;107696;1239;99011;-79
2024/01/03 11:03:43;;;;;;;7.60;4.70;;;;;;;7.64;85.02;95349.22;107431;1242;98055;-86
2024/01/03 11:06:22;;;;;;;6.40;4.00;;;;;;;7.59;85.24;95350.94;107796;1248;98406;-84
2024/01/03 11:08:53;;;;;;;5.10;3.50;;;;;;;7.55;85.37;95348.39;107808;1249;103730;-84
2024/01/03 11:11:32;;;;;;;6.10;4.00;;;;;;;7.52;85.55;95351.39;107832;1240;101099;-84
2024/01/03 11:14:00;;;;;;;8.10;4.60;;;;;;;7.49;85.53;95355.05;107756;1242;98538;-84
2024/01/03 11:16:40;;;;;;;8.50;4.60;;;;;;;7.49;85.40;95355.42;107810;1249;97892;-85
2024/01/03 11:19:10;;;;;;;5.40;3.70;;;;;;;7.48;85.61;95353.11;107789;1238;98391;-85
2024/01/03 11:21:38;;;;;;;8.20;4.10;;;;;;;7.43;85.71;95353.29;107770;1239;103581;-85
2024/01/03 11:24:08;;;;;;;10.10;5.00;;;;;;;7.42;85.71;95352.61;107707;1246;114455;-85
2024/01/03 11:26:52;;;;;;;10.90;5.00;;;;;;;7.43;85.71;95357.35;107729;1239;98837;-86
2024/01/03 11:29:38;;;;;;;8.90;4.80;;;;;;;7.41;85.88;95360.07;107677;1245;99013;-84
2024/01/03 11:32:06;;;;;;;8.00;5.10;;;;;;;7.38;85.81;95360.25;107787;1240;98474;-77
2024/01/03 11:34:49;;;;;;;7.40;3.80;;;;;;;7.37;85.66;95360.25;107778;1245;101902;-78